createdAt,value
2018-03-22T00:00:05.287Z,3.78
2018-03-22T00:00:45.838Z,3.83
2018-03-22T00:01:26.464Z,3.83
2018-03-22T00:02:07.158Z,3.83
2018-03-22T00:02:47.731Z,3.81
2018-03-22T00:03:28.284Z,3.78
2018-03-22T00:04:08.921Z,3.77
2018-03-22T00:04:49.467Z,3.76
2018-03-22T00:05:30.022Z,3.77
2018-03-22T00:06:10.633Z,3.76
2018-03-22T00:06:51.186Z,3.87
2018-03-22T00:07:31.743Z,3.78
2018-03-22T00:08:12.326Z,3.81
2018-03-22T00:08:52.906Z,3.83
2018-03-22T00:09:33.572Z,3.83
2018-03-22T00:10:14.275Z,3.83
2018-03-22T00:10:54.888Z,3.92
2018-03-22T00:11:35.385Z,3.94
2018-03-22T00:12:15.955Z,3.86
2018-03-22T00:12:56.512Z,3.92
2018-03-22T00:13:37.199Z,3.87
2018-03-22T00:14:17.964Z,3.96
2018-03-22T00:14:58.522Z,3.94
2018-03-22T00:15:39.082Z,3.94
2018-03-22T00:16:19.645Z,3.88
2018-03-22T00:17:00.245Z,3.98
2018-03-22T00:17:40.793Z,4.01
2018-03-22T00:18:21.373Z,3.94
2018-03-22T00:19:01.938Z,3.96
2018-03-22T00:19:42.525Z,3.88
2018-03-22T00:20:23.082Z,3.98
2018-03-22T00:21:03.636Z,3.87
2018-03-22T00:21:44.198Z,3.92
2018-03-22T00:22:24.779Z,3.94
2018-03-22T00:23:05.370Z,3.99
2018-03-22T00:23:45.932Z,3.94
2018-03-22T00:24:26.486Z,3.94
2018-03-22T00:25:07.064Z,3.88
2018-03-22T00:25:47.612Z,3.88
2018-03-22T00:26:28.217Z,3.96
2018-03-22T00:27:08.747Z,3.96
2018-03-22T00:27:49.307Z,3.94
2018-03-22T00:28:29.868Z,3.96
2018-03-22T00:29:10.406Z,3.96
2018-03-22T00:29:51.079Z,3.99
2018-03-22T00:30:32.584Z,3.95
2018-03-22T00:31:13.131Z,3.91
2018-03-22T00:31:53.736Z,3.88
2018-03-22T00:32:34.300Z,3.98
2018-03-22T00:33:14.861Z,3.86
2018-03-22T00:33:55.423Z,3.84
2018-03-22T00:34:35.967Z,3.91
2018-03-22T00:35:16.526Z,3.86
2018-03-22T00:35:57.078Z,3.84
2018-03-22T00:36:37.674Z,3.87
2018-03-22T00:37:18.348Z,3.8
2018-03-22T00:37:59.079Z,3.81
2018-03-22T00:38:39.739Z,3.8
2018-03-22T00:39:20.470Z,3.78
2018-03-22T00:40:01.171Z,3.78
2018-03-22T00:40:41.719Z,3.68
2018-03-22T00:41:22.276Z,3.76
2018-03-22T00:42:02.823Z,3.68
2018-03-22T00:42:43.384Z,3.8
2018-03-22T00:43:23.942Z,3.65
2018-03-22T00:44:04.496Z,3.69
2018-03-22T00:44:45.170Z,3.76
2018-03-22T00:45:25.917Z,3.69
2018-03-22T00:46:06.507Z,3.74
2018-03-22T00:46:47.110Z,3.74
2018-03-22T00:47:27.677Z,3.77
2018-03-22T00:48:08.234Z,3.77
2018-03-22T00:48:48.789Z,3.78
2018-03-22T00:49:29.473Z,3.76
2018-03-22T00:50:10.014Z,3.74
2018-03-22T00:50:50.565Z,3.77
2018-03-22T00:51:31.125Z,3.73
2018-03-22T00:52:11.684Z,3.7
2018-03-22T00:52:52.242Z,3.63
2018-03-22T00:53:32.802Z,3.65
2018-03-22T00:54:13.351Z,3.69
2018-03-22T00:54:53.910Z,3.68
2018-03-22T00:55:34.866Z,3.73
2018-03-22T00:56:15.418Z,3.7
2018-03-22T00:56:55.962Z,3.66
2018-03-22T00:57:36.596Z,3.63
2018-03-22T00:58:17.081Z,3.59
2018-03-22T00:58:57.682Z,3.56
2018-03-22T00:59:38.233Z,3.62
2018-03-22T01:00:18.788Z,3.6
2018-03-22T01:00:59.339Z,3.62
2018-03-22T01:01:39.968Z,3.66
2018-03-22T01:02:20.513Z,3.58
2018-03-22T01:03:01.077Z,3.51
2018-03-22T01:03:41.745Z,3.73
2018-03-22T01:04:22.442Z,3.59
2018-03-22T01:05:03.004Z,3.66
2018-03-22T01:05:43.753Z,3.58
2018-03-22T01:06:24.306Z,3.55
2018-03-22T01:07:04.864Z,3.56
2018-03-22T01:07:45.427Z,3.51
2018-03-22T01:08:25.984Z,3.69
2018-03-22T01:09:06.538Z,3.55
2018-03-22T01:09:47.137Z,3.59
2018-03-22T01:10:27.703Z,3.53
2018-03-22T01:11:08.269Z,3.56
2018-03-22T01:11:48.829Z,3.48
2018-03-22T01:12:29.387Z,3.47
2018-03-22T01:13:09.957Z,3.48
2018-03-22T01:13:50.507Z,3.53
2018-03-22T01:14:31.066Z,3.45
2018-03-22T01:15:11.625Z,3.42
2018-03-22T01:15:52.323Z,3.51
2018-03-22T01:16:32.881Z,3.42
2018-03-22T01:17:13.419Z,3.42
2018-03-22T01:17:53.973Z,3.44
2018-03-22T01:18:35.066Z,3.42
2018-03-22T01:19:15.705Z,3.48
2018-03-22T01:19:56.266Z,3.36
2018-03-22T01:20:36.815Z,3.37
2018-03-22T01:21:17.383Z,3.29
2018-03-22T01:21:58.034Z,3.28
2018-03-22T01:22:38.802Z,3.41
2018-03-22T01:23:19.361Z,3.25
2018-03-22T01:23:59.923Z,3.34
2018-03-22T01:24:40.493Z,3.26
2018-03-22T01:25:21.067Z,3.29
2018-03-22T01:26:01.613Z,3.29
2018-03-22T01:26:42.171Z,3.37
2018-03-22T01:27:22.739Z,3.28
2018-03-22T01:28:03.310Z,3.23
2018-03-22T01:28:43.893Z,3.26
2018-03-22T01:29:24.467Z,3.28
2018-03-22T01:30:05.026Z,3.26
2018-03-22T01:30:45.622Z,3.25
2018-03-22T01:31:26.249Z,3.23
2018-03-22T01:32:06.838Z,3.22
2018-03-22T01:32:47.566Z,3.22
2018-03-22T01:33:28.201Z,3.25
2018-03-22T01:34:08.966Z,3.26
2018-03-22T01:34:49.528Z,3.22
2018-03-22T01:35:30.181Z,3.29
2018-03-22T01:36:10.961Z,3.25
2018-03-22T01:36:51.509Z,3.28
2018-03-22T01:37:32.075Z,3.23
2018-03-22T01:38:12.842Z,3.25
2018-03-22T01:38:53.797Z,3.21
2018-03-22T01:39:34.528Z,3.25
2018-03-22T01:40:15.088Z,3.26
2018-03-22T01:40:55.644Z,3.14
2018-03-22T01:41:36.275Z,3.22
2018-03-22T01:42:16.835Z,3.28
2018-03-22T01:42:57.402Z,3.26
2018-03-22T01:43:37.951Z,3.29
2018-03-22T01:44:18.581Z,3.26
2018-03-22T01:44:59.126Z,3.26
2018-03-22T01:45:40.224Z,3.28
2018-03-22T01:46:20.672Z,3.26
2018-03-22T01:47:01.233Z,3.25
2018-03-22T01:47:41.786Z,3.21
2018-03-22T01:48:22.337Z,3.22
2018-03-22T01:49:02.894Z,3.29
2018-03-22T01:49:43.621Z,3.22
2018-03-22T01:50:24.183Z,3.28
2018-03-22T01:51:04.752Z,3.26
2018-03-22T01:51:45.294Z,3.25
2018-03-22T01:52:25.854Z,3.23
2018-03-22T01:53:06.569Z,3.21
2018-03-22T01:53:47.151Z,3.28
2018-03-22T01:54:27.712Z,3.26
2018-03-22T01:55:08.289Z,3.23
2018-03-22T01:55:49.102Z,3.26
2018-03-22T01:56:29.666Z,3.32
2018-03-22T01:57:10.280Z,3.26
2018-03-22T01:57:50.831Z,3.28
2018-03-22T01:58:31.483Z,3.36
2018-03-22T01:59:11.957Z,3.28
2018-03-22T01:59:52.515Z,3.29
2018-03-22T02:00:33.128Z,3.29
2018-03-22T02:01:13.637Z,3.29
2018-03-22T02:01:54.194Z,3.32
2018-03-22T02:02:34.750Z,3.28
2018-03-22T02:03:15.305Z,3.37
2018-03-22T02:03:55.848Z,3.29
2018-03-22T02:04:36.404Z,3.29
2018-03-22T02:05:16.955Z,3.36
2018-03-22T02:05:57.534Z,3.34
2018-03-22T02:06:38.077Z,3.32
2018-03-22T02:07:18.616Z,3.23
2018-03-22T02:07:59.181Z,3.23
2018-03-22T02:08:39.741Z,3.21
2018-03-22T02:09:20.300Z,3.29
2018-03-22T02:10:00.862Z,3.29
2018-03-22T02:10:41.412Z,3.31
2018-03-22T02:11:22.021Z,3.31
2018-03-22T02:12:02.572Z,3.34
2018-03-22T02:12:43.131Z,3.25
2018-03-22T02:13:23.735Z,3.4
2018-03-22T02:14:04.308Z,3.28
2018-03-22T02:14:44.848Z,3.34
2018-03-22T02:15:25.411Z,3.37
2018-03-22T02:16:05.975Z,3.26
2018-03-22T02:16:46.526Z,3.29
2018-03-22T02:17:27.085Z,3.37
2018-03-22T02:18:07.634Z,3.34
2018-03-22T02:18:48.194Z,3.32
2018-03-22T02:19:28.739Z,3.37
2018-03-22T02:20:09.303Z,3.32
2018-03-22T02:20:49.882Z,3.25
2018-03-22T02:21:30.429Z,3.28
2018-03-22T02:22:10.988Z,3.26
2018-03-22T02:22:51.575Z,3.32
2018-03-22T02:23:32.116Z,3.23
2018-03-22T02:24:12.677Z,3.29
2018-03-22T02:24:53.226Z,3.31
2018-03-22T02:25:33.779Z,3.28
2018-03-22T02:26:14.335Z,3.28
2018-03-22T02:26:54.889Z,3.32
2018-03-22T02:27:35.454Z,3.32
2018-03-22T02:28:15.998Z,3.26
2018-03-22T02:28:56.548Z,3.26
2018-03-22T02:29:37.097Z,3.32
2018-03-22T02:30:17.664Z,3.26
2018-03-22T02:30:58.211Z,3.28
2018-03-22T02:31:38.769Z,3.37
2018-03-22T02:32:19.336Z,3.37
2018-03-22T02:32:59.904Z,3.36
2018-03-22T02:33:40.454Z,3.32
2018-03-22T02:34:21.003Z,3.32
2018-03-22T02:35:01.567Z,3.25
2018-03-22T02:35:42.168Z,3.28
2018-03-22T02:36:22.736Z,3.28
2018-03-22T02:37:03.290Z,3.23
2018-03-22T02:37:43.855Z,3.22
2018-03-22T02:38:24.408Z,3.23
2018-03-22T02:39:04.981Z,3.19
2018-03-22T02:39:45.535Z,3.19
2018-03-22T02:40:26.089Z,3.25
2018-03-22T02:41:06.639Z,3.23
2018-03-22T02:41:47.195Z,3.29
2018-03-22T02:42:27.758Z,3.18
2018-03-22T02:43:08.315Z,3.08
2018-03-22T02:43:48.875Z,3.21
2018-03-22T02:44:29.442Z,3.11
2018-03-22T02:45:09.999Z,3.11
2018-03-22T02:45:50.562Z,3.14
2018-03-22T02:46:31.117Z,3.1
2018-03-22T02:47:11.672Z,3.1
2018-03-22T02:47:52.217Z,3.07
2018-03-22T02:48:32.808Z,3.21
2018-03-22T02:49:13.348Z,3.05
2018-03-22T02:49:53.904Z,3.11
2018-03-22T02:50:34.465Z,3.07
2018-03-22T02:51:15.032Z,3.16
2018-03-22T02:51:55.577Z,3.08
2018-03-22T02:52:36.122Z,3.05
2018-03-22T02:53:16.675Z,3.1
2018-03-22T02:53:57.223Z,3.1
2018-03-22T02:54:37.756Z,3.05
2018-03-22T02:55:18.321Z,3.08
2018-03-22T02:55:58.870Z,3.11
2018-03-22T02:56:39.423Z,3.11
2018-03-22T02:57:19.963Z,3.08
2018-03-22T02:58:00.529Z,3.08
2018-03-22T02:58:41.091Z,3.08
2018-03-22T02:59:21.637Z,3.04
2018-03-22T03:00:02.182Z,3.03
2018-03-22T03:00:42.733Z,3.03
2018-03-22T03:01:23.306Z,3.11
2018-03-22T03:02:03.847Z,3.08
2018-03-22T03:02:44.416Z,3.07
2018-03-22T03:03:24.975Z,3.04
2018-03-22T03:04:05.539Z,3.01
2018-03-22T03:04:46.113Z,3.08
2018-03-22T03:05:26.668Z,3.07
2018-03-22T03:06:07.226Z,3.05
2018-03-22T03:06:47.789Z,3.04
2018-03-22T03:07:28.374Z,3.03
2018-03-22T03:08:08.932Z,3.03
2018-03-22T03:08:49.576Z,3.1
2018-03-22T03:09:30.044Z,3.01
2018-03-22T03:10:10.633Z,3.07
2018-03-22T03:10:51.198Z,3.03
2018-03-22T03:11:31.751Z,3.01
2018-03-22T03:12:12.299Z,3.04
2018-03-22T03:12:52.857Z,3.01
2018-03-22T03:13:33.431Z,3
2018-03-22T03:14:13.984Z,2.93
2018-03-22T03:14:54.533Z,3.01
2018-03-22T03:15:35.136Z,2.98
2018-03-22T03:16:15.692Z,3
2018-03-22T03:16:56.271Z,3.01
2018-03-22T03:17:36.818Z,2.95
2018-03-22T03:18:17.377Z,3
2018-03-22T03:18:57.927Z,3.01
2018-03-22T03:19:38.473Z,3.04
2018-03-22T03:20:19.030Z,2.98
2018-03-22T03:20:59.593Z,2.98
2018-03-22T03:21:40.167Z,3
2018-03-22T03:22:20.735Z,2.98
2018-03-22T03:23:01.304Z,3.03
2018-03-22T03:23:41.864Z,3.11
2018-03-22T03:24:22.556Z,3.03
2018-03-22T03:25:02.965Z,2.95
2018-03-22T03:25:43.529Z,3.05
2018-03-22T03:26:24.092Z,3
2018-03-22T03:27:04.650Z,2.97
2018-03-22T03:27:45.224Z,3.04
2018-03-22T03:28:25.799Z,3.03
2018-03-22T03:29:06.361Z,2.93
2018-03-22T03:29:46.971Z,2.97
2018-03-22T03:30:27.598Z,2.95
2018-03-22T03:31:08.271Z,2.98
2018-03-22T03:31:48.675Z,2.98
2018-03-22T03:32:29.218Z,3
2018-03-22T03:33:09.801Z,3.01
2018-03-22T03:33:50.358Z,3.05
2018-03-22T03:34:30.919Z,3.03
2018-03-22T03:35:11.600Z,3.1
2018-03-22T03:35:52.160Z,3.01
2018-03-22T03:36:32.717Z,3.1
2018-03-22T03:37:13.305Z,3.05
2018-03-22T03:37:53.935Z,3
2018-03-22T03:38:34.828Z,3.05
2018-03-22T03:39:15.200Z,3.05
2018-03-22T03:39:55.922Z,3.01
2018-03-22T03:40:36.475Z,3.1
2018-03-22T03:41:17.020Z,3
2018-03-22T03:41:57.605Z,3.1
2018-03-22T03:42:38.372Z,3.08
2018-03-22T03:43:18.957Z,3.07
2018-03-22T03:43:59.537Z,3.08
2018-03-22T03:44:40.070Z,3.18
2018-03-22T03:45:20.616Z,3.11
2018-03-22T03:46:01.200Z,3.08
2018-03-22T03:46:41.763Z,3.13
2018-03-22T03:47:22.325Z,3.08
2018-03-22T03:48:02.901Z,3.11
2018-03-22T03:48:43.461Z,3.11
2018-03-22T03:49:24.017Z,3.11
2018-03-22T03:50:04.574Z,3.04
2018-03-22T03:50:45.131Z,3.08
2018-03-22T03:51:25.710Z,3.16
2018-03-22T03:52:06.236Z,3.07
2018-03-22T03:52:46.797Z,3.21
2018-03-22T03:53:27.353Z,3.14
2018-03-22T03:54:07.909Z,3.13
2018-03-22T03:54:48.477Z,3.1
2018-03-22T03:55:29.042Z,3.1
2018-03-22T03:56:09.584Z,3.04
2018-03-22T03:56:50.154Z,3.1
2018-03-22T03:57:30.714Z,3.08
2018-03-22T03:58:11.268Z,3.1
2018-03-22T03:58:51.816Z,3.1
2018-03-22T03:59:32.407Z,3.05
2018-03-22T04:00:12.967Z,3.08
2018-03-22T04:00:53.532Z,2.98
2018-03-22T04:01:34.076Z,3.07
2018-03-22T04:02:14.657Z,3.11
2018-03-22T04:02:55.234Z,2.97
2018-03-22T04:03:35.779Z,3.05
2018-03-22T04:04:16.337Z,3.07
2018-03-22T04:04:56.888Z,3.07
2018-03-22T04:05:37.434Z,3.05
2018-03-22T04:06:17.995Z,3.05
2018-03-22T04:06:58.558Z,3.07
2018-03-22T04:07:39.119Z,3.05
2018-03-22T04:08:19.681Z,3.1
2018-03-22T04:09:00.247Z,3.03
2018-03-22T04:09:40.814Z,3.1
2018-03-22T04:10:21.376Z,3.08
2018-03-22T04:11:01.929Z,3.07
2018-03-22T04:11:42.489Z,3.08
2018-03-22T04:12:23.046Z,3.08
2018-03-22T04:13:03.592Z,3.01
2018-03-22T04:13:44.227Z,3.04
2018-03-22T04:14:24.751Z,3.05
2018-03-22T04:15:05.304Z,3.14
2018-03-22T04:15:45.864Z,3.04
2018-03-22T04:16:26.424Z,3.03
2018-03-22T04:17:06.974Z,3.05
2018-03-22T04:17:47.540Z,3.11
2018-03-22T04:18:28.093Z,3.1
2018-03-22T04:19:08.659Z,3
2018-03-22T04:19:49.225Z,3.1
2018-03-22T04:20:29.786Z,3.01
2018-03-22T04:21:10.358Z,2.97
2018-03-22T04:21:50.924Z,2.98
2018-03-22T04:22:31.490Z,3.05
2018-03-22T04:23:12.047Z,2.98
2018-03-22T04:23:52.619Z,2.97
2018-03-22T04:24:33.164Z,3
2018-03-22T04:25:13.725Z,3.04
2018-03-22T04:25:54.274Z,2.95
2018-03-22T04:26:34.833Z,2.97
2018-03-22T04:27:15.385Z,3.07
2018-03-22T04:27:55.947Z,2.95
2018-03-22T04:28:36.510Z,3.03
2018-03-22T04:29:17.074Z,2.98
2018-03-22T04:29:57.639Z,2.93
2018-03-22T04:30:38.211Z,3.08
2018-03-22T04:31:18.754Z,3
2018-03-22T04:31:59.307Z,3.03
2018-03-22T04:32:39.873Z,3.03
2018-03-22T04:33:20.411Z,3.05
2018-03-22T04:34:00.982Z,3
2018-03-22T04:34:41.538Z,2.98
2018-03-22T04:35:22.104Z,3.04
2018-03-22T04:36:02.668Z,3.13
2018-03-22T04:36:43.230Z,3.04
2018-03-22T04:37:23.789Z,3.01
2018-03-22T04:38:04.371Z,3.08
2018-03-22T04:38:44.929Z,3.07
2018-03-22T04:39:25.488Z,3.05
2018-03-22T04:40:06.043Z,3.05
2018-03-22T04:40:46.612Z,3.07
2018-03-22T04:41:27.151Z,3.1
2018-03-22T04:42:07.718Z,3.11
2018-03-22T04:42:48.305Z,3.03
2018-03-22T04:43:28.889Z,3.1
2018-03-22T04:44:09.445Z,3.07
2018-03-22T04:44:49.986Z,3.13
2018-03-22T04:45:30.546Z,3.08
2018-03-22T04:46:11.109Z,3.01
2018-03-22T04:46:51.676Z,3.08
2018-03-22T04:47:32.233Z,3.08
2018-03-22T04:48:12.806Z,3.04
2018-03-22T04:48:53.368Z,3.1
2018-03-22T04:49:33.924Z,3.08
2018-03-22T04:50:14.487Z,3.01
2018-03-22T04:50:55.045Z,3.03
2018-03-22T04:51:35.592Z,3
2018-03-22T04:52:16.151Z,2.98
2018-03-22T04:52:56.717Z,2.98
2018-03-22T04:53:37.277Z,2.97
2018-03-22T04:54:17.837Z,2.97
2018-03-22T04:54:58.387Z,2.97
2018-03-22T04:55:38.955Z,3
2018-03-22T04:56:19.521Z,2.97
2018-03-22T04:57:00.088Z,2.98
2018-03-22T04:57:40.648Z,2.92
2018-03-22T04:58:21.207Z,2.86
2018-03-22T04:59:01.752Z,2.97
2018-03-22T04:59:42.313Z,3
2018-03-22T05:00:22.857Z,3.01
2018-03-22T05:01:03.409Z,2.95
2018-03-22T05:01:43.954Z,3.01
2018-03-22T05:02:24.519Z,2.86
2018-03-22T05:03:05.078Z,2.97
2018-03-22T05:03:45.727Z,2.9
2018-03-22T05:04:26.291Z,2.83
2018-03-22T05:05:06.836Z,2.87
2018-03-22T05:05:47.387Z,2.85
2018-03-22T05:06:27.944Z,2.87
2018-03-22T05:07:08.517Z,2.85
2018-03-22T05:07:49.064Z,2.92
2018-03-22T05:08:29.631Z,2.86
2018-03-22T05:09:10.200Z,2.85
2018-03-22T05:09:50.764Z,2.89
2018-03-22T05:10:31.322Z,2.87
2018-03-22T05:11:11.879Z,2.89
2018-03-22T05:11:52.429Z,2.89
2018-03-22T05:12:32.985Z,2.82
2018-03-22T05:13:13.543Z,2.86
2018-03-22T05:13:54.103Z,2.87
2018-03-22T05:14:34.675Z,2.89
2018-03-22T05:15:15.236Z,2.86
2018-03-22T05:15:55.799Z,2.85
2018-03-22T05:16:36.348Z,2.89
2018-03-22T05:17:16.910Z,2.86
2018-03-22T05:17:57.486Z,2.89
2018-03-22T05:18:38.048Z,2.87
2018-03-22T05:19:18.603Z,2.86
2018-03-22T05:19:59.153Z,2.87
2018-03-22T05:20:39.706Z,2.89
2018-03-22T05:21:20.277Z,2.87
2018-03-22T05:22:00.840Z,2.89
2018-03-22T05:22:41.508Z,2.85
2018-03-22T05:23:22.070Z,2.89
2018-03-22T05:24:02.641Z,2.89
2018-03-22T05:24:43.191Z,2.83
2018-03-22T05:25:23.765Z,3.01
2018-03-22T05:26:04.319Z,2.82
2018-03-22T05:26:44.875Z,2.98
2018-03-22T05:27:25.439Z,2.82
2018-03-22T05:28:05.989Z,2.87
2018-03-22T05:28:46.556Z,2.85
2018-03-22T05:29:27.113Z,2.87
2018-03-22T05:30:07.675Z,2.95
2018-03-22T05:30:48.239Z,2.9
2018-03-22T05:31:28.803Z,2.89
2018-03-22T05:32:09.358Z,2.85
2018-03-22T05:32:49.891Z,2.9
2018-03-22T05:33:30.453Z,2.85
2018-03-22T05:34:11.002Z,2.87
2018-03-22T05:34:51.569Z,2.87
2018-03-22T05:35:32.123Z,2.93
2018-03-22T05:36:12.692Z,2.9
2018-03-22T05:36:53.292Z,3
2018-03-22T05:37:33.891Z,3
2018-03-22T05:38:14.443Z,3
2018-03-22T05:38:55.012Z,3
2018-03-22T05:39:35.787Z,3.04
2018-03-22T05:40:16.348Z,3.04
2018-03-22T05:40:56.908Z,2.95
2018-03-22T05:41:37.469Z,3
2018-03-22T05:42:18.025Z,3.01
2018-03-22T05:42:58.581Z,3
2018-03-22T05:43:39.125Z,3.01
2018-03-22T05:44:19.680Z,3.05
2018-03-22T05:45:00.244Z,2.98
2018-03-22T05:45:40.942Z,3.07
2018-03-22T05:46:21.521Z,3
2018-03-22T05:47:02.082Z,2.95
2018-03-22T05:47:42.635Z,2.98
2018-03-22T05:48:23.176Z,2.97
2018-03-22T05:49:03.727Z,2.98
2018-03-22T05:49:44.288Z,2.97
2018-03-22T05:50:24.866Z,3
2018-03-22T05:51:05.424Z,2.89
2018-03-22T05:51:45.978Z,2.89
2018-03-22T05:52:26.533Z,2.85
2018-03-22T05:53:07.087Z,2.97
2018-03-22T05:53:47.662Z,2.9
2018-03-22T05:54:28.226Z,2.86
2018-03-22T05:55:08.779Z,2.86
2018-03-22T05:55:49.341Z,2.89
2018-03-22T05:56:29.888Z,2.87
2018-03-22T05:57:10.440Z,2.9
2018-03-22T05:57:50.997Z,2.86
2018-03-22T05:58:32.240Z,2.86
2018-03-22T05:59:12.812Z,2.93
2018-03-22T05:59:53.364Z,2.85
2018-03-22T06:00:33.924Z,2.85
2018-03-22T06:01:14.527Z,2.85
2018-03-22T06:01:55.092Z,3
2018-03-22T06:02:35.643Z,2.86
2018-03-22T06:03:16.194Z,2.85
2018-03-22T06:03:56.745Z,2.87
2018-03-22T06:04:37.317Z,2.86
2018-03-22T06:05:17.859Z,2.83
2018-03-22T06:05:58.455Z,2.87
2018-03-22T06:06:39.020Z,2.95
2018-03-22T06:07:19.567Z,3
2018-03-22T06:08:00.133Z,3.03
2018-03-22T06:08:40.692Z,3
2018-03-22T06:09:21.261Z,2.97
2018-03-22T06:10:01.825Z,3.01
2018-03-22T06:10:42.378Z,3.05
2018-03-22T06:11:22.928Z,3.04
2018-03-22T06:12:03.495Z,3.03
2018-03-22T06:12:44.056Z,2.98
2018-03-22T06:13:24.615Z,3.01
2018-03-22T06:14:05.178Z,3.07
2018-03-22T06:14:45.742Z,3.1
2018-03-22T06:15:26.358Z,3.03
2018-03-22T06:16:06.910Z,3.01
2018-03-22T06:16:47.462Z,3.16
2018-03-22T06:17:28.032Z,3.11
2018-03-22T06:18:08.570Z,3.1
2018-03-22T06:18:49.129Z,3.04
2018-03-22T06:19:29.667Z,3.13
2018-03-22T06:20:10.235Z,3.05
2018-03-22T06:20:50.797Z,3.01
2018-03-22T06:21:31.344Z,3.07
2018-03-22T06:22:11.934Z,3.11
2018-03-22T06:22:52.503Z,3.04
2018-03-22T06:23:33.094Z,3.08
2018-03-22T06:24:13.673Z,3.11
2018-03-22T06:24:54.271Z,3.11
2018-03-22T06:25:34.831Z,3.16
2018-03-22T06:26:15.380Z,3.36
2018-03-22T06:26:55.955Z,3.63
2018-03-22T06:27:36.523Z,3.83
2018-03-22T06:28:17.079Z,3.99
2018-03-22T06:28:57.643Z,4.35
2018-03-22T06:29:38.199Z,4.53
2018-03-22T06:30:18.752Z,4.68
2018-03-22T06:30:59.312Z,4.7
2018-03-22T06:31:39.876Z,4.89
2018-03-22T06:32:20.436Z,4.97
2018-03-22T06:33:00.995Z,5.1
2018-03-22T06:33:41.544Z,5.2
2018-03-22T06:34:22.090Z,5.23
2018-03-22T06:35:02.636Z,5.25
2018-03-22T06:35:43.190Z,5.07
2018-03-22T06:36:23.750Z,4.92
2018-03-22T06:37:05.595Z,4.92
2018-03-22T06:37:45.248Z,4.74
2018-03-22T06:38:25.894Z,4.67
2018-03-22T06:39:06.446Z,4.58
2018-03-22T06:39:47.054Z,4.41
2018-03-22T06:40:27.628Z,4.37
2018-03-22T06:41:08.215Z,4.24
2018-03-22T06:41:48.796Z,4.24
2018-03-22T06:42:29.352Z,4.1
2018-03-22T06:43:09.979Z,4.01
2018-03-22T06:43:50.545Z,4.02
2018-03-22T06:44:31.115Z,3.98
2018-03-22T06:45:11.669Z,3.94
2018-03-22T06:45:52.233Z,3.91
2018-03-22T06:46:32.780Z,3.88
2018-03-22T06:47:13.339Z,3.81
2018-03-22T06:47:53.889Z,3.81
2018-03-22T06:48:34.435Z,3.81
2018-03-22T06:49:15.067Z,3.66
2018-03-22T06:49:55.631Z,3.65
2018-03-22T06:50:36.187Z,3.62
2018-03-22T06:51:16.763Z,3.63
2018-03-22T06:51:57.299Z,3.63
2018-03-22T06:52:37.849Z,3.53
2018-03-22T06:53:18.405Z,3.53
2018-03-22T06:53:59.083Z,3.5
2018-03-22T06:54:40.250Z,3.44
2018-03-22T06:55:20.805Z,3.42
2018-03-22T06:56:01.367Z,3.37
2018-03-22T06:56:41.946Z,3.36
2018-03-22T06:57:22.492Z,3.4
2018-03-22T06:58:03.059Z,3.42
2018-03-22T06:58:43.960Z,3.4
2018-03-22T06:59:24.519Z,3.34
2018-03-22T07:00:05.094Z,3.4
2018-03-22T07:00:45.659Z,3.26
2018-03-22T07:01:27.625Z,3.25
2018-03-22T07:02:08.238Z,3.25
2018-03-22T07:02:48.801Z,3.26
2018-03-22T07:03:29.446Z,3.22
2018-03-22T07:04:10.056Z,3.22
2018-03-22T07:04:50.605Z,3.05
2018-03-22T07:05:31.167Z,3.05
2018-03-22T07:06:11.719Z,3.08
2018-03-22T07:06:55.553Z,3
2018-03-22T07:07:34.184Z,3
2018-03-22T07:08:14.750Z,2.93
2018-03-22T07:08:55.331Z,2.9
2018-03-22T07:09:35.896Z,2.87
2018-03-22T07:10:16.476Z,2.89
2018-03-22T07:10:57.019Z,2.93
2018-03-22T07:11:37.746Z,2.82
2018-03-22T07:12:18.341Z,2.83
2018-03-22T07:12:58.906Z,2.74
2018-03-22T07:13:39.448Z,2.72
2018-03-22T07:14:20.003Z,2.74
2018-03-22T07:15:00.569Z,2.79
2018-03-22T07:15:41.131Z,2.67
2018-03-22T07:16:21.699Z,2.65
2018-03-22T07:17:02.256Z,2.61
2018-03-22T07:17:42.811Z,2.62
2018-03-22T07:18:23.405Z,2.51
2018-03-22T07:19:03.949Z,2.54
2018-03-22T07:19:44.525Z,2.57
2018-03-22T07:20:25.929Z,2.56
2018-03-22T07:21:06.576Z,2.56
2018-03-22T07:21:47.045Z,2.54
2018-03-22T07:22:27.619Z,2.61
2018-03-22T07:23:08.174Z,2.6
2018-03-22T07:23:48.717Z,2.6
2018-03-22T07:24:29.268Z,2.54
2018-03-22T07:25:09.804Z,2.6
2018-03-22T07:25:50.359Z,2.61
2018-03-22T07:26:30.914Z,2.56
2018-03-22T07:27:11.490Z,2.56
2018-03-22T07:27:53.275Z,2.47
2018-03-22T07:28:33.858Z,2.49
2018-03-22T07:29:15.323Z,2.5
2018-03-22T07:29:55.485Z,2.43
2018-03-22T07:30:36.224Z,2.43
2018-03-22T07:31:16.898Z,2.39
2018-03-22T07:31:57.548Z,2.42
2018-03-22T07:32:38.175Z,2.38
2018-03-22T07:33:18.740Z,2.35
2018-03-22T07:33:59.287Z,2.38
2018-03-22T07:34:39.992Z,2.36
2018-03-22T07:35:20.558Z,2.35
2018-03-22T07:36:01.455Z,2.36
2018-03-22T07:36:42.022Z,2.35
2018-03-22T07:37:22.588Z,2.31
2018-03-22T07:38:03.197Z,2.38
2018-03-22T07:38:43.818Z,2.31
2018-03-22T07:39:24.613Z,2.33
2018-03-22T07:40:05.229Z,2.28
2018-03-22T07:40:45.828Z,2.31
2018-03-22T07:41:26.477Z,2.25
2018-03-22T07:42:07.794Z,2.26
2018-03-22T07:42:48.348Z,2.32
2018-03-22T07:43:28.912Z,2.35
2018-03-22T07:44:09.511Z,2.32
2018-03-22T07:44:50.121Z,2.36
2018-03-22T07:45:30.676Z,2.36
2018-03-22T07:46:11.238Z,2.31
2018-03-22T07:46:51.823Z,2.35
2018-03-22T07:47:32.376Z,2.33
2018-03-22T07:48:12.931Z,2.29
2018-03-22T07:48:53.486Z,2.29
2018-03-22T07:49:34.069Z,2.25
2018-03-22T07:50:14.618Z,2.32
2018-03-22T07:50:55.182Z,2.28
2018-03-22T07:51:35.747Z,2.33
2018-03-22T07:52:16.332Z,2.26
2018-03-22T07:52:56.894Z,2.33
2018-03-22T07:53:37.447Z,2.26
2018-03-22T07:54:18.338Z,2.36
2018-03-22T07:54:58.898Z,2.31
2018-03-22T07:55:39.551Z,2.32
2018-03-22T07:56:20.134Z,2.31
2018-03-22T07:57:00.710Z,2.31
2018-03-22T07:57:41.275Z,2.33
2018-03-22T07:58:21.816Z,2.31
2018-03-22T07:59:02.410Z,2.36
2018-03-22T07:59:43.032Z,2.36
2018-03-22T08:00:23.606Z,2.39
2018-03-22T08:01:04.204Z,2.35
2018-03-22T08:01:45.345Z,2.42
2018-03-22T08:02:25.899Z,2.33
2018-03-22T08:03:06.442Z,2.42
2018-03-22T08:03:47.011Z,2.43
2018-03-22T08:04:27.567Z,2.44
2018-03-22T08:05:08.168Z,2.42
2018-03-22T08:05:48.773Z,2.38
2018-03-22T08:06:29.274Z,2.35
2018-03-22T08:07:09.825Z,2.36
2018-03-22T08:07:50.368Z,2.33
2018-03-22T08:08:30.958Z,2.32
2018-03-22T08:09:11.500Z,2.32
2018-03-22T08:09:52.045Z,2.29
2018-03-22T08:10:32.645Z,2.33
2018-03-22T08:11:13.194Z,2.29
2018-03-22T08:11:53.752Z,2.35
2018-03-22T08:12:34.318Z,2.36
2018-03-22T08:13:14.918Z,2.38
2018-03-22T08:13:55.468Z,2.36
2018-03-22T08:14:36.020Z,2.38
2018-03-22T08:15:16.566Z,2.33
2018-03-22T08:15:57.293Z,2.32
2018-03-22T08:16:37.834Z,2.43
2018-03-22T08:17:18.538Z,2.32
2018-03-22T08:17:59.131Z,2.39
2018-03-22T08:18:39.687Z,2.31
2018-03-22T08:19:20.216Z,2.33
2018-03-22T08:20:00.861Z,2.32
2018-03-22T08:20:41.429Z,2.33
2018-03-22T08:21:21.994Z,2.33
2018-03-22T08:22:02.711Z,2.32
2018-03-22T08:22:43.275Z,2.35
2018-03-22T08:23:23.868Z,2.25
2018-03-22T08:24:04.420Z,2.24
2018-03-22T08:24:44.970Z,2.25
2018-03-22T08:25:25.519Z,2.28
2018-03-22T08:26:06.077Z,2.25
2018-03-22T08:26:46.637Z,2.29
2018-03-22T08:27:27.185Z,2.22
2018-03-22T08:28:07.745Z,2.35
2018-03-22T08:28:48.359Z,2.25
2018-03-22T08:29:29.075Z,2.32
2018-03-22T08:30:09.551Z,2.29
2018-03-22T08:30:50.094Z,2.24
2018-03-22T08:31:30.716Z,2.26
2018-03-22T08:32:11.233Z,2.32
2018-03-22T08:32:51.798Z,2.32
2018-03-22T08:33:32.385Z,2.29
2018-03-22T08:34:12.936Z,2.32
2018-03-22T08:34:53.522Z,2.32
2018-03-22T08:35:34.095Z,2.38
2018-03-22T08:36:14.649Z,2.33
2018-03-22T08:36:55.205Z,2.32
2018-03-22T08:37:35.756Z,2.35
2018-03-22T08:38:16.318Z,2.32
2018-03-22T08:38:56.867Z,2.35
2018-03-22T08:39:37.415Z,2.38
2018-03-22T08:40:17.977Z,2.33
2018-03-22T08:40:58.542Z,2.33
2018-03-22T08:41:39.114Z,2.33
2018-03-22T08:42:19.676Z,2.36
2018-03-22T08:43:00.219Z,2.42
2018-03-22T08:43:40.776Z,2.46
2018-03-22T08:44:21.355Z,2.38
2018-03-22T08:45:01.914Z,2.35
2018-03-22T08:45:42.465Z,2.38
2018-03-22T08:46:23.024Z,2.36
2018-03-22T08:47:03.584Z,2.33
2018-03-22T08:47:44.132Z,2.33
2018-03-22T08:48:24.722Z,2.31
2018-03-22T08:49:05.298Z,2.28
2018-03-22T08:49:45.839Z,2.33
2018-03-22T08:50:26.394Z,2.2
2018-03-22T08:51:06.958Z,2.29
2018-03-22T08:51:47.504Z,2.31
2018-03-22T08:52:28.086Z,2.31
2018-03-22T08:53:08.637Z,2.25
2018-03-22T08:53:49.183Z,2.29
2018-03-22T08:54:29.763Z,2.36
2018-03-22T08:55:10.310Z,2.28
2018-03-22T08:55:50.877Z,2.33
2018-03-22T08:56:31.441Z,2.29
2018-03-22T08:57:12.008Z,2.28
2018-03-22T08:57:52.565Z,2.29
2018-03-22T08:58:33.132Z,2.26
2018-03-22T08:59:13.716Z,2.26
2018-03-22T08:59:54.284Z,2.24
2018-03-22T09:00:34.814Z,2.22
2018-03-22T09:01:15.368Z,2.18
2018-03-22T09:01:55.919Z,2.24
2018-03-22T09:02:36.480Z,2.28